createdAt,value
2022-12-11T00:01:31.572Z,91.08
2022-12-11T00:04:01.851Z,91.14
2022-12-11T00:06:31.968Z,91.29
2022-12-11T00:09:02.246Z,91.33
2022-12-11T00:11:32.463Z,91.38
2022-12-11T00:14:02.521Z,91.35
2022-12-11T00:16:32.243Z,91.37
2022-12-11T00:19:02.382Z,91.46
2022-12-11T00:21:32.304Z,91.75
2022-12-11T00:24:02.415Z,91.77
2022-12-11T00:26:32.356Z,91.91
2022-12-11T00:29:02.140Z,91.96
2022-12-11T00:31:32.298Z,91.99
2022-12-11T00:34:03.900Z,92.09
2022-12-11T00:36:34.135Z,92.17
2022-12-11T00:39:04.701Z,92.41
2022-12-11T00:41:34.574Z,92.69
2022-12-11T00:44:04.414Z,92.67
2022-12-11T00:46:34.528Z,92.61
2022-12-11T00:49:04.259Z,92.92
2022-12-11T00:51:33.992Z,92.88
2022-12-11T00:54:04.486Z,92.85
2022-12-11T00:56:36.484Z,92.84
2022-12-11T00:59:06.842Z,92.67
2022-12-11T01:01:36.878Z,92.37
2022-12-11T01:04:07.055Z,92.33
2022-12-11T01:06:37.038Z,91.90
2022-12-11T01:09:25.266Z,91.95
2022-12-11T01:11:55.540Z,91.54
2022-12-11T01:14:25.554Z,91.39
2022-12-11T01:16:55.693Z,91.35
2022-12-11T01:19:25.432Z,91.32
2022-12-11T01:21:55.696Z,91.47
2022-12-11T01:24:25.380Z,91.48
2022-12-11T01:26:55.146Z,91.43
2022-12-11T01:29:24.871Z,91.65
2022-12-11T01:31:55.026Z,91.79
2022-12-11T01:34:24.856Z,91.86
2022-12-11T01:36:55.281Z,91.85
2022-12-11T01:39:25.368Z,92.33
2022-12-11T01:42:00.230Z,92.54
2022-12-11T01:44:33.062Z,92.67
2022-12-11T01:47:03.170Z,92.91
2022-12-11T01:49:32.973Z,92.97
2022-12-11T01:52:12.907Z,92.75
2022-12-11T01:54:43.952Z,93.07
2022-12-11T01:57:16.735Z,92.78
2022-12-11T01:59:48.242Z,92.62
2022-12-11T02:02:29.265Z,92.22
2022-12-11T02:04:59.539Z,92.24
2022-12-11T02:07:31.590Z,92.49
2022-12-11T02:10:02.018Z,92.68
2022-12-11T02:13:01.493Z,92.84
2022-12-11T02:15:50.016Z,92.35
2022-12-11T02:18:32.160Z,92.20
2022-12-11T02:21:11.025Z,91.91
2022-12-11T02:24:06.372Z,91.88
2022-12-11T02:26:48.609Z,92.12
2022-12-11T02:29:24.481Z,92.53
2022-12-11T02:32:04.330Z,92.25
2022-12-11T02:35:13.663Z,92.25
2022-12-11T02:37:46.957Z,92.85
2022-12-11T02:40:34.611Z,92.98
2022-12-11T02:43:08.675Z,93.26
2022-12-11T02:45:41.214Z,92.98
2022-12-11T02:48:13.561Z,92.75
2022-12-11T02:50:48.990Z,92.72
2022-12-11T02:53:23.940Z,93.08
2022-12-11T02:56:03.191Z,92.93
2022-12-11T02:58:35.187Z,92.72
2022-12-11T03:01:05.862Z,92.60
2022-12-11T03:03:35.937Z,92.60
2022-12-11T03:06:06.809Z,92.86
2022-12-11T03:08:36.650Z,93.03
2022-12-11T03:11:06.485Z,93.03
2022-12-11T03:13:36.256Z,93.06
2022-12-11T03:16:31.407Z,92.88
2022-12-11T03:19:13.639Z,92.99
2022-12-11T03:22:11.985Z,92.87
2022-12-11T03:25:08.587Z,93.28
2022-12-11T03:27:46.430Z,93.37
2022-12-11T03:30:19.801Z,93.04
2022-12-11T03:32:56.349Z,92.93
2022-12-11T03:35:38.520Z,92.99
2022-12-11T03:38:24.121Z,92.94
2022-12-11T03:40:57.201Z,92.94
2022-12-11T03:43:29.335Z,93.03
2022-12-11T03:46:01.385Z,93.27
2022-12-11T03:48:36.354Z,92.99
2022-12-11T03:51:08.956Z,93.01
2022-12-11T03:53:40.326Z,92.86
2022-12-11T03:56:13.689Z,92.92
2022-12-11T03:58:43.643Z,93.24
2022-12-11T04:01:13.946Z,92.97
2022-12-11T04:03:44.158Z,93.19
2022-12-11T04:06:13.880Z,93.31
2022-12-11T04:08:44.184Z,93.45
2022-12-11T04:11:32.362Z,93.48
2022-12-11T04:14:27.354Z,93.26
2022-12-11T04:16:58.236Z,93.56
2022-12-11T04:19:47.129Z,93.44
2022-12-11T04:22:37.608Z,93.42
2022-12-11T04:25:09.709Z,93.69
2022-12-11T04:27:51.812Z,93.78
2022-12-11T04:30:32.341Z,93.82
2022-12-11T04:33:04.346Z,93.72
2022-12-11T04:35:34.295Z,93.89
2022-12-11T04:38:04.031Z,94.03
2022-12-11T04:40:33.779Z,93.98
2022-12-11T04:43:03.581Z,94.14
2022-12-11T04:45:33.540Z,94.23
2022-12-11T04:48:03.242Z,94.10
2022-12-11T04:50:33.003Z,94.11
2022-12-11T04:53:02.717Z,94.08
2022-12-11T04:55:32.507Z,94.17
2022-12-11T04:58:02.288Z,94.33
2022-12-11T05:00:31.975Z,94.41
2022-12-11T05:03:01.786Z,94.39
2022-12-11T05:05:32.201Z,94.44
2022-12-11T05:08:02.017Z,94.40
2022-12-11T05:10:32.128Z,94.49
2022-12-11T05:13:01.822Z,94.47
2022-12-11T05:15:31.564Z,94.47
2022-12-11T05:18:01.245Z,94.63
2022-12-11T05:20:30.983Z,94.62
2022-12-11T05:23:01.148Z,94.76
2022-12-11T05:25:30.976Z,94.79
2022-12-11T05:28:00.670Z,94.85
2022-12-11T05:30:31.324Z,94.86
2022-12-11T05:33:01.895Z,95.02
2022-12-11T05:35:31.845Z,94.74
2022-12-11T05:38:02.602Z,94.96
2022-12-11T05:40:32.327Z,94.94
2022-12-11T05:43:02.010Z,95.07
2022-12-11T05:45:31.703Z,95.05
2022-12-11T05:48:01.567Z,94.94
2022-12-11T05:50:31.264Z,95.07
2022-12-11T05:53:01.089Z,95.27
2022-12-11T05:55:31.347Z,95.43
2022-12-11T05:58:01.075Z,95.56
2022-12-11T06:00:35.887Z,95.57
2022-12-11T06:03:06.547Z,95.85
2022-12-11T06:05:43.989Z,95.92
2022-12-11T06:08:14.176Z,96.08
2022-12-11T06:10:48.527Z,96.06
2022-12-11T06:13:19.528Z,96.19
2022-12-11T06:15:49.586Z,96.12
2022-12-11T06:18:19.389Z,96.14
2022-12-11T06:20:49.139Z,96.14
2022-12-11T06:23:20.076Z,96.35
2022-12-11T06:25:50.349Z,96.24
2022-12-11T06:28:20.084Z,96.21
2022-12-11T06:30:50.219Z,96.35
2022-12-11T06:33:19.908Z,96.32
2022-12-11T06:35:49.632Z,96.40
2022-12-11T06:38:19.660Z,96.57
2022-12-11T06:40:57.237Z,96.55
2022-12-11T06:43:27.243Z,96.72
2022-12-11T06:46:02.086Z,96.79
2022-12-11T06:48:33.936Z,96.73
2022-12-11T06:51:10.840Z,96.84
2022-12-11T06:53:41.665Z,97.00
2022-12-11T06:56:15.070Z,97.12
2022-12-11T06:58:45.535Z,97.08
2022-12-11T07:01:21.826Z,97.23
2022-12-11T07:03:55.056Z,97.19
2022-12-11T07:06:26.099Z,97.11
2022-12-11T07:08:56.737Z,97.12
2022-12-11T07:11:26.585Z,97.13
2022-12-11T07:13:56.438Z,97.03
2022-12-11T07:16:26.148Z,97.02
2022-12-11T07:18:55.878Z,96.94
2022-12-11T07:21:25.591Z,96.89
2022-12-11T07:23:55.498Z,96.98
2022-12-11T07:26:25.207Z,97.12
2022-12-11T07:28:57.818Z,97.20
2022-12-11T07:31:30.365Z,97.38
2022-12-11T07:34:05.736Z,97.20
2022-12-11T07:36:36.449Z,97.40
2022-12-11T07:39:06.394Z,97.30
2022-12-11T07:41:36.311Z,97.22
2022-12-11T07:44:11.974Z,97.21
2022-12-11T07:46:42.327Z,97.30
2022-12-11T07:49:12.218Z,97.41
2022-12-11T07:51:42.633Z,97.43
2022-12-11T07:54:18.684Z,97.47
2022-12-11T07:56:53.863Z,97.70
2022-12-11T07:59:24.200Z,97.90
2022-12-11T08:01:54.858Z,98.06
2022-12-11T08:04:25.562Z,98.22
2022-12-11T08:06:55.277Z,98.20
2022-12-11T08:09:24.973Z,98.37
2022-12-11T08:11:56.292Z,98.14
2022-12-11T08:14:27.440Z,97.81
2022-12-11T08:16:58.584Z,97.95
2022-12-11T08:19:29.210Z,97.82
2022-12-11T08:21:58.967Z,97.96
2022-12-11T08:24:28.745Z,97.98
2022-12-11T08:26:58.758Z,97.84
2022-12-11T08:29:28.591Z,97.75
2022-12-11T08:31:58.296Z,97.86
2022-12-11T08:34:28.043Z,97.87
2022-12-11T08:36:57.769Z,97.86
2022-12-11T08:39:28.865Z,98.06
2022-12-11T08:41:58.706Z,97.88
2022-12-11T08:44:29.468Z,97.70
2022-12-11T08:46:59.156Z,97.51
2022-12-11T08:49:34.037Z,97.45
2022-12-11T08:52:08.029Z,97.42
2022-12-11T08:54:39.657Z,97.21
2022-12-11T08:57:09.782Z,97.16
2022-12-11T08:59:39.796Z,96.78
2022-12-11T09:02:15.718Z,96.59
2022-12-11T09:04:46.165Z,96.33
2022-12-11T09:07:15.882Z,96.22
2022-12-11T09:09:45.712Z,96.12
2022-12-11T09:12:15.663Z,95.80
2022-12-11T09:14:45.484Z,96.11
2022-12-11T09:17:15.273Z,95.79
2022-12-11T09:19:45.692Z,95.45
2022-12-11T09:22:15.387Z,95.23
2022-12-11T09:24:45.098Z,95.10
2022-12-11T09:27:14.934Z,94.48
2022-12-11T09:29:44.991Z,94.04
2022-12-11T09:32:14.710Z,94.34
2022-12-11T09:34:44.486Z,94.01
2022-12-11T09:37:14.265Z,94.16
2022-12-11T09:39:44.341Z,93.32
2022-12-11T09:42:19.630Z,93.16
2022-12-11T09:44:49.104Z,93.05
2022-12-11T09:47:26.832Z,92.38
2022-12-11T09:50:20.815Z,91.86
2022-12-11T09:53:14.457Z,91.85
2022-12-11T09:55:55.200Z,92.11
2022-12-11T09:58:36.230Z,91.51
2022-12-11T10:01:12.120Z,91.64
2022-12-11T10:03:51.183Z,91.58
2022-12-11T10:06:30.267Z,90.98
2022-12-11T10:09:19.239Z,91.18
2022-12-11T10:11:57.857Z,90.37
2022-12-11T10:14:58.078Z,89.93
2022-12-11T10:17:30.376Z,89.86
2022-12-11T10:20:25.385Z,87.62
2022-12-11T10:22:57.991Z,87.35
2022-12-11T10:25:41.998Z,87.66
2022-12-11T10:28:17.340Z,86.51
2022-12-11T10:30:59.360Z,85.21
2022-12-11T10:33:45.174Z,86.05
2022-12-11T10:36:20.258Z,86.99
2022-12-11T10:38:50.307Z,86.68
2022-12-11T10:41:25.644Z,84.38
2022-12-11T10:43:55.831Z,84.47
2022-12-11T10:46:30.530Z,85.13
2022-12-11T10:49:02.154Z,84.89
2022-12-11T10:51:36.685Z,83.64
2022-12-11T10:54:08.666Z,83.51
2022-12-11T10:56:39.933Z,82.17
2022-12-11T10:59:25.716Z,82.35
2022-12-11T11:01:59.210Z,83.98
2022-12-11T11:04:40.311Z,83.20
2022-12-11T11:07:15.451Z,81.30
2022-12-11T11:09:45.157Z,82.87
2022-12-11T11:12:26.383Z,81.29
2022-12-11T11:15:08.221Z,82.95
2022-12-11T11:18:08.070Z,83.59
2022-12-11T11:20:37.900Z,83.37
2022-12-11T11:23:17.536Z,82.04
2022-12-11T11:25:59.251Z,82.65
2022-12-11T11:28:49.544Z,81.58
2022-12-11T11:31:20.991Z,81.36
2022-12-11T11:33:58.783Z,81.91
2022-12-11T11:36:32.731Z,82.27
2022-12-11T11:39:17.474Z,80.52
2022-12-11T11:42:12.043Z,81.11
2022-12-11T11:45:11.998Z,81.26
2022-12-11T11:48:05.075Z,81.09
2022-12-11T11:50:42.647Z,80.20
2022-12-11T11:53:24.222Z,78.68
2022-12-11T11:55:56.933Z,79.94
2022-12-11T11:58:37.566Z,80.56
2022-12-11T12:01:18.428Z,79.54
2022-12-11T12:03:50.590Z,77.97
2022-12-11T12:07:01.995Z,79.17
2022-12-11T12:10:00.280Z,77.95
2022-12-11T12:13:01.963Z,75.79
2022-12-11T12:15:53.435Z,71.91
2022-12-11T12:18:28.787Z,72.81
2022-12-11T12:21:07.782Z,72.44
2022-12-11T12:24:14.823Z,74.94
2022-12-11T12:26:59.081Z,73.75
2022-12-11T12:29:58.088Z,72.60
2022-12-11T12:32:42.228Z,65.97
2022-12-11T12:35:15.456Z,68.76
2022-12-11T12:38:00.031Z,68.23
2022-12-11T12:40:38.161Z,67.33
2022-12-11T12:43:26.489Z,71.45
2022-12-11T12:46:11.444Z,71.42
2022-12-11T12:48:41.952Z,70.12
2022-12-11T12:51:16.294Z,69.46
2022-12-11T12:53:56.075Z,71.38
2022-12-11T12:56:27.336Z,71.52
2022-12-11T12:58:57.784Z,67.60
2022-12-11T13:01:31.113Z,68.23
2022-12-11T13:04:16.791Z,69.35
2022-12-11T13:06:59.132Z,67.90
2022-12-11T13:09:32.652Z,71.73
2022-12-11T13:12:15.037Z,69.82
2022-12-11T13:14:45.338Z,69.58
2022-12-11T13:17:27.355Z,69.88
2022-12-11T13:20:20.721Z,71.78
2022-12-11T13:23:09.849Z,68.62
2022-12-11T13:25:49.331Z,67.49
2022-12-11T13:28:29.339Z,67.04
2022-12-11T13:31:29.904Z,68.99
2022-12-11T13:34:10.714Z,69.25
2022-12-11T13:36:42.435Z,64.70
2022-12-11T13:39:20.066Z,65.29
2022-12-11T13:41:56.814Z,60.55
2022-12-11T13:44:30.628Z,59.06
2022-12-11T13:47:04.503Z,62.00
2022-12-11T13:49:42.959Z,58.46
2022-12-11T13:52:27.049Z,62.48
2022-12-11T13:55:01.247Z,63.76
2022-12-11T13:57:32.275Z,65.51
2022-12-11T14:00:02.465Z,66.05
2022-12-11T14:02:43.743Z,68.05
2022-12-11T14:05:15.862Z,64.88
2022-12-11T14:07:59.785Z,62.91
2022-12-11T14:10:33.113Z,61.40
2022-12-11T14:13:28.345Z,63.80
2022-12-11T14:15:58.450Z,59.47
2022-12-11T14:18:36.737Z,62.42
2022-12-11T14:21:08.145Z,64.67
2022-12-11T14:23:39.502Z,61.92
2022-12-11T14:26:25.373Z,62.11
2022-12-11T14:28:56.355Z,64.42
2022-12-11T14:31:31.968Z,58.46
2022-12-11T14:34:13.646Z,63.70
2022-12-11T14:36:45.319Z,62.83
2022-12-11T14:39:27.266Z,60.25
2022-12-11T14:42:05.895Z,60.26
2022-12-11T14:44:50.455Z,60.71
2022-12-11T14:47:31.342Z,60.35
2022-12-11T14:50:10.735Z,59.38
2022-12-11T14:52:44.741Z,58.90
2022-12-11T14:55:23.155Z,60.56
2022-12-11T14:58:08.643Z,58.66
2022-12-11T15:00:39.602Z,56.94
2022-12-11T15:03:36.950Z,58.15
2022-12-11T15:06:36.165Z,59.82
2022-12-11T15:09:19.491Z,55.81
2022-12-11T15:11:51.709Z,54.10
2022-12-11T15:14:23.957Z,55.95
2022-12-11T15:16:57.765Z,51.24
2022-12-11T15:19:32.907Z,52.48
2022-12-11T15:22:08.030Z,59.94
2022-12-11T15:24:45.043Z,57.81
2022-12-11T15:27:33.609Z,53.75
2022-12-11T15:30:27.915Z,57.03
2022-12-11T15:33:23.338Z,55.07
2022-12-11T15:36:02.284Z,52.90
2022-12-11T15:38:38.763Z,53.70
2022-12-11T15:41:15.845Z,55.28
2022-12-11T15:43:46.728Z,56.06
2022-12-11T15:46:16.583Z,52.41
2022-12-11T15:48:46.427Z,50.40
2022-12-11T15:51:16.770Z,55.18
2022-12-11T15:53:46.498Z,53.83
2022-12-11T15:56:18.000Z,50.92
2022-12-11T15:58:50.883Z,54.06
2022-12-11T16:01:20.811Z,54.97
2022-12-11T16:03:51.549Z,49.58
2022-12-11T16:06:22.212Z,54.17
2022-12-11T16:08:52.597Z,50.02
2022-12-11T16:11:23.648Z,51.05
2022-12-11T16:13:53.854Z,52.07
2022-12-11T16:16:23.668Z,54.19
2022-12-11T16:18:53.411Z,50.84
2022-12-11T16:21:23.141Z,53.63
2022-12-11T16:23:53.374Z,56.77
2022-12-11T16:26:23.093Z,50.05
2022-12-11T16:28:52.788Z,51.19
2022-12-11T16:31:22.536Z,48.25
2022-12-11T16:33:52.300Z,50.24
2022-12-11T16:36:22.463Z,52.04
2022-12-11T16:38:54.252Z,49.16
2022-12-11T16:41:25.195Z,52.64
2022-12-11T16:43:56.048Z,51.01
2022-12-11T16:46:26.929Z,48.74
2022-12-11T16:48:56.881Z,50.28
2022-12-11T16:51:26.652Z,47.56
2022-12-11T16:53:56.363Z,52.61
2022-12-11T16:56:27.692Z,48.29
2022-12-11T16:58:57.793Z,48.74
2022-12-11T17:01:28.989Z,48.26
2022-12-11T17:04:00.701Z,45.43
2022-12-11T17:06:30.893Z,46.89
2022-12-11T17:09:00.677Z,46.86
2022-12-11T17:11:30.543Z,51.11
2022-12-11T17:14:01.621Z,47.17
2022-12-11T17:16:32.317Z,50.46
2022-12-11T17:19:04.503Z,49.04
2022-12-11T17:21:35.009Z,49.32
2022-12-11T17:24:04.768Z,44.87
2022-12-11T17:26:34.680Z,54.36
2022-12-11T17:29:05.104Z,47.71
2022-12-11T17:31:35.391Z,48.21
2022-12-11T17:34:05.622Z,44.40
2022-12-11T17:36:35.574Z,47.49
2022-12-11T17:39:06.354Z,45.76
2022-12-11T17:41:36.722Z,46.94
2022-12-11T17:44:06.899Z,46.33
2022-12-11T17:46:36.726Z,49.04
2022-12-11T17:49:07.393Z,45.29
2022-12-11T17:51:37.314Z,45.46
2022-12-11T17:54:07.195Z,45.31
2022-12-11T17:56:37.356Z,45.89
2022-12-11T17:59:07.188Z,43.76
2022-12-11T18:01:37.300Z,42.62
2022-12-11T18:04:07.315Z,43.07
2022-12-11T18:06:37.700Z,42.87
2022-12-11T18:09:07.675Z,45.23
2022-12-11T18:11:37.421Z,51.35
2022-12-11T18:14:09.152Z,45.45
2022-12-11T18:16:42.594Z,46.88
2022-12-11T18:19:13.536Z,48.61
2022-12-11T18:21:46.781Z,46.05
2022-12-11T18:24:16.901Z,44.89
2022-12-11T18:26:47.115Z,44.26
2022-12-11T18:29:17.960Z,46.12
2022-12-11T18:31:48.265Z,43.91
2022-12-11T18:34:18.014Z,46.00
2022-12-11T18:36:49.348Z,43.48
2022-12-11T18:39:20.252Z,45.78
2022-12-11T18:42:03.502Z,47.13
2022-12-11T18:44:40.059Z,47.80
2022-12-11T18:47:10.125Z,47.05
2022-12-11T18:49:40.088Z,47.75
2022-12-11T18:52:09.815Z,47.58
2022-12-11T18:54:39.596Z,50.58
2022-12-11T18:57:09.726Z,51.26
2022-12-11T18:59:39.698Z,47.97
2022-12-11T19:02:10.110Z,49.88
2022-12-11T19:04:39.900Z,50.03
2022-12-11T19:07:09.754Z,50.30
2022-12-11T19:09:43.494Z,49.64
2022-12-11T19:12:19.681Z,51.75
2022-12-11T19:14:49.966Z,51.77
2022-12-11T19:17:20.350Z,51.84
2022-12-11T19:19:51.036Z,49.75
2022-12-11T19:22:21.562Z,48.00
2022-12-11T19:24:51.405Z,49.62
2022-12-11T19:27:23.139Z,50.71
2022-12-11T19:29:53.379Z,50.88
2022-12-11T19:32:23.518Z,51.07
2022-12-11T19:34:56.929Z,52.94
2022-12-11T19:37:27.594Z,52.60
2022-12-11T19:39:57.863Z,53.12
2022-12-11T19:42:30.917Z,52.98
2022-12-11T19:45:01.707Z,51.76
2022-12-11T19:47:31.912Z,52.00
2022-12-11T19:50:02.054Z,52.56
2022-12-11T19:52:34.109Z,55.85
2022-12-11T19:55:06.945Z,58.02
2022-12-11T19:57:37.128Z,58.12
2022-12-11T20:00:07.817Z,60.81
2022-12-11T20:02:41.542Z,60.25
2022-12-11T20:05:13.283Z,60.78
2022-12-11T20:07:45.657Z,62.13
2022-12-11T20:10:16.753Z,62.39
2022-12-11T20:12:47.102Z,64.03
2022-12-11T20:15:20.057Z,64.10
2022-12-11T20:17:53.521Z,64.77
2022-12-11T20:20:25.851Z,65.18
2022-12-11T20:23:00.420Z,65.79
2022-12-11T20:25:30.347Z,65.78
2022-12-11T20:28:00.260Z,66.74
2022-12-11T20:30:30.196Z,67.31
2022-12-11T20:32:59.933Z,66.83
2022-12-11T20:35:29.900Z,67.10
2022-12-11T20:38:00.918Z,67.37
2022-12-11T20:40:31.099Z,68.36
2022-12-11T20:43:00.838Z,68.67
2022-12-11T20:45:30.949Z,69.32
2022-12-11T20:48:00.739Z,68.65
2022-12-11T20:50:30.792Z,69.79
2022-12-11T20:53:00.793Z,69.95
2022-12-11T20:55:30.539Z,69.70
2022-12-11T20:58:00.281Z,70.53
2022-12-11T21:00:30.210Z,71.30
2022-12-11T21:03:00.021Z,72.10
2022-12-11T21:05:30.137Z,71.83
2022-12-11T21:08:00.913Z,72.04
2022-12-11T21:10:31.962Z,71.50
2022-12-11T21:13:02.116Z,70.88
2022-12-11T21:15:31.840Z,71.61
2022-12-11T21:18:02.466Z,72.66
2022-12-11T21:20:32.238Z,73.03
2022-12-11T21:23:02.183Z,72.62
2022-12-11T21:25:32.183Z,72.80
2022-12-11T21:28:03.239Z,72.86
2022-12-11T21:30:33.349Z,73.08
2022-12-11T21:33:05.140Z,74.05
2022-12-11T21:35:35.298Z,73.99
2022-12-11T21:38:06.010Z,74.07
2022-12-11T21:40:36.410Z,75.00
2022-12-11T21:43:17.295Z,74.19
2022-12-11T21:46:03.086Z,74.69
2022-12-11T21:48:33.951Z,73.77
2022-12-11T21:51:17.504Z,73.95
2022-12-11T21:53:48.549Z,74.41
2022-12-11T21:56:22.333Z,74.62
2022-12-11T21:58:54.733Z,75.45
2022-12-11T22:01:28.104Z,75.77
2022-12-11T22:03:59.114Z,76.47
2022-12-11T22:06:32.283Z,77.42
2022-12-11T22:09:08.405Z,77.65
2022-12-11T22:11:38.689Z,77.98
2022-12-11T22:14:09.434Z,78.35
2022-12-11T22:16:39.752Z,78.60
2022-12-11T22:19:09.594Z,79.25
2022-12-11T22:21:39.766Z,79.20
2022-12-11T22:24:09.707Z,79.84
2022-12-11T22:26:39.452Z,80.54
2022-12-11T22:29:09.513Z,80.73
2022-12-11T22:31:39.207Z,81.49
2022-12-11T22:34:09.297Z,81.98
2022-12-11T22:36:39.958Z,81.82
2022-12-11T22:39:10.119Z,81.57
2022-12-11T22:41:43.388Z,82.69
2022-12-11T22:44:19.958Z,82.67
2022-12-11T22:46:50.891Z,82.51
2022-12-11T22:49:21.800Z,82.89
2022-12-11T22:51:51.595Z,83.46
2022-12-11T22:54:21.337Z,84.27
2022-12-11T22:56:51.304Z,84.84
2022-12-11T22:59:21.305Z,85.40
2022-12-11T23:01:51.399Z,85.94
2022-12-11T23:04:21.099Z,86.34
2022-12-11T23:06:50.813Z,86.79
2022-12-11T23:09:20.538Z,87.51
2022-12-11T23:11:51.181Z,88.03
2022-12-11T23:14:21.139Z,88.09
2022-12-11T23:16:51.087Z,88.41
2022-12-11T23:19:25.467Z,88.70
2022-12-11T23:21:55.954Z,88.84
2022-12-11T23:24:25.840Z,89.32
2022-12-11T23:26:56.081Z,89.60
2022-12-11T23:29:25.826Z,89.83
2022-12-11T23:31:55.553Z,90.23
2022-12-11T23:34:25.526Z,90.53
2022-12-11T23:36:55.571Z,90.82
2022-12-11T23:39:25.333Z,91.16
2022-12-11T23:41:56.272Z,91.30
2022-12-11T23:44:26.420Z,91.58
2022-12-11T23:46:56.164Z,91.74
2022-12-11T23:49:25.899Z,92.02
2022-12-11T23:51:55.694Z,92.26
2022-12-11T23:54:25.431Z,92.40
2022-12-11T23:56:55.355Z,92.46
2022-12-11T23:59:25.076Z,92.65
